sensor_id;sensor_type;location;lat;lon;timestamp;temperature;humidity
4604;DHT22;2314;48.272;11.562;2022-12-20T00:02:08;-1.60;99.90
4604;DHT22;2314;48.272;11.562;2022-12-20T00:04:35;-1.60;99.90
4604;DHT22;2314;48.272;11.562;2022-12-20T00:07:02;-1.60;99.90
4604;DHT22;2314;48.272;11.562;2022-12-20T00:09:29;-1.60;99.90
4604;DHT22;2314;48.272;11.562;2022-12-20T00:11:56;-1.60;99.90
4604;DHT22;2314;48.272;11.562;2022-12-20T00:14:23;-1.60;99.90
4604;DHT22;2314;48.272;11.562;2022-12-20T00:16:51;-1.60;99.90
4604;DHT22;2314;48.272;11.562;2022-12-20T00:19:18;-1.50;99.90
4604;DHT22;2314;48.272;11.562;2022-12-20T00:21:45;-1.60;99.90
4604;DHT22;2314;48.272;11.562;2022-12-20T00:24:12;-1.60;99.90
4604;DHT22;2314;48.272;11.562;2022-12-20T00:26:39;-1.60;99.90
4604;DHT22;2314;48.272;11.562;2022-12-20T00:29:06;-1.50;99.90
4604;DHT22;2314;48.272;11.562;2022-12-20T00:31:34;-1.50;99.90
4604;DHT22;2314;48.272;11.562;2022-12-20T00:34:02;-1.50;99.90
4604;DHT22;2314;48.272;11.562;2022-12-20T00:36:31;-1.50;99.90
4604;DHT22;2314;48.272;11.562;2022-12-20T00:38:59;-1.50;99.90
4604;DHT22;2314;48.272;11.562;2022-12-20T00:41:27;-1.50;99.90
4604;DHT22;2314;48.272;11.562;2022-12-20T00:43:56;-1.50;99.90
4604;DHT22;2314;48.272;11.562;2022-12-20T00:46:23;-1.40;99.90
4604;DHT22;2314;48.272;11.562;2022-12-20T00:48:51;-1.40;99.90
4604;DHT22;2314;48.272;11.562;2022-12-20T00:51:21;-1.40;99.90
4604;DHT22;2314;48.272;11.562;2022-12-20T00:53:49;-1.40;99.90
4604;DHT22;2314;48.272;11.562;2022-12-20T00:56:17;-1.40;99.90
4604;DHT22;2314;48.272;11.562;2022-12-20T00:58:44;-1.40;99.90
4604;DHT22;2314;48.272;11.562;2022-12-20T01:01:16;-1.40;99.90
4604;DHT22;2314;48.272;11.562;2022-12-20T01:03:44;-1.40;99.90
4604;DHT22;2314;48.272;11.562;2022-12-20T01:06:12;-1.30;99.90
4604;DHT22;2314;48.272;11.562;2022-12-20T01:08:41;-1.30;99.90
4604;DHT22;2314;48.272;11.562;2022-12-20T01:11:11;-1.30;99.90
4604;DHT22;2314;48.272;11.562;2022-12-20T01:13:42;-1.30;99.90
4604;DHT22;2314;48.272;11.562;2022-12-20T01:16:12;-1.30;99.90
4604;DHT22;2314;48.272;11.562;2022-12-20T01:18:40;-1.40;99.90
4604;DHT22;2314;48.272;11.562;2022-12-20T01:21:08;-1.40;99.90
4604;DHT22;2314;48.272;11.562;2022-12-20T01:23:36;-1.30;99.90
4604;DHT22;2314;48.272;11.562;2022-12-20T01:26:09;-1.30;99.90
4604;DHT22;2314;48.272;11.562;2022-12-20T01:28:38;-1.30;99.90
4604;DHT22;2314;48.272;11.562;2022-12-20T01:31:07;-1.30;99.90
4604;DHT22;2314;48.272;11.562;2022-12-20T01:33:35;-1.30;99.90
4604;DHT22;2314;48.272;11.562;2022-12-20T01:36:05;-1.20;99.90
4604;DHT22;2314;48.272;11.562;2022-12-20T01:38:35;-1.20;99.90
4604;DHT22;2314;48.272;11.562;2022-12-20T01:41:03;-1.30;99.90
4604;DHT22;2314;48.272;11.562;2022-12-20T01:43:47;-1.30;99.90
4604;DHT22;2314;48.272;11.562;2022-12-20T01:46:16;-1.30;99.90
4604;DHT22;2314;48.272;11.562;2022-12-20T01:48:51;-1.30;99.90
4604;DHT22;2314;48.272;11.562;2022-12-20T01:51:22;-1.30;99.90
4604;DHT22;2314;48.272;11.562;2022-12-20T01:53:53;-1.30;99.90
4604;DHT22;2314;48.272;11.562;2022-12-20T01:56:22;-1.30;99.90
4604;DHT22;2314;48.272;11.562;2022-12-20T01:58:52;-1.30;99.90
4604;DHT22;2314;48.272;11.562;2022-12-20T02:01:21;-1.30;99.90
4604;DHT22;2314;48.272;11.562;2022-12-20T02:03:49;-1.30;99.90
4604;DHT22;2314;48.272;11.562;2022-12-20T02:06:19;-1.30;99.90
4604;DHT22;2314;48.272;11.562;2022-12-20T02:08:49;-1.30;99.90
4604;DHT22;2314;48.272;11.562;2022-12-20T02:14:35;-1.30;99.90
4604;DHT22;2314;48.272;11.562;2022-12-20T02:17:20;-1.20;99.90
4604;DHT22;2314;48.272;11.562;2022-12-20T02:20:19;-1.20;99.90
4604;DHT22;2314;48.272;11.562;2022-12-20T02:23:13;-1.30;99.90
4604;DHT22;2314;48.272;11.562;2022-12-20T02:26:01;-1.20;99.90
4604;DHT22;2314;48.272;11.562;2022-12-20T02:28:48;-1.20;99.90
4604;DHT22;2314;48.272;11.562;2022-12-20T02:31:27;-1.20;99.90
4604;DHT22;2314;48.272;11.562;2022-12-20T02:33:57;-1.20;99.90
4604;DHT22;2314;48.272;11.562;2022-12-20T02:36:25;-1.20;99.90
4604;DHT22;2314;48.272;11.562;2022-12-20T02:38:52;-1.10;99.90
4604;DHT22;2314;48.272;11.562;2022-12-20T02:41:21;-1.20;99.90
4604;DHT22;2314;48.272;11.562;2022-12-20T02:43:55;-1.20;99.90
4604;DHT22;2314;48.272;11.562;2022-12-20T02:46:55;-1.20;99.90
4604;DHT22;2314;48.272;11.562;2022-12-20T02:49:28;-1.20;99.90
4604;DHT22;2314;48.272;11.562;2022-12-20T02:51:58;-1.20;99.90
4604;DHT22;2314;48.272;11.562;2022-12-20T02:54:27;-1.20;99.90
4604;DHT22;2314;48.272;11.562;2022-12-20T02:56:56;-1.20;99.90
4604;DHT22;2314;48.272;11.562;2022-12-20T02:59:29;-1.30;99.90
4604;DHT22;2314;48.272;11.562;2022-12-20T03:01:59;-1.20;99.90
4604;DHT22;2314;48.272;11.562;2022-12-20T03:04:30;-1.20;99.90
4604;DHT22;2314;48.272;11.562;2022-12-20T03:07:02;-1.20;99.90
4604;DHT22;2314;48.272;11.562;2022-12-20T03:09:32;-1.20;99.90
4604;DHT22;2314;48.272;11.562;2022-12-20T03:12:00;-1.20;99.90
4604;DHT22;2314;48.272;11.562;2022-12-20T03:14:28;-1.20;99.90
4604;DHT22;2314;48.272;11.562;2022-12-20T03:16:54;-1.20;99.90
4604;DHT22;2314;48.272;11.562;2022-12-20T03:19:23;-1.10;99.90
4604;DHT22;2314;48.272;11.562;2022-12-20T03:21:50;-1.10;99.90
4604;DHT22;2314;48.272;11.562;2022-12-20T03:24:17;-1.00;99.90
4604;DHT22;2314;48.272;11.562;2022-12-20T03:26:45;-1.10;99.90
4604;DHT22;2314;48.272;11.562;2022-12-20T03:29:12;-1.10;99.90
4604;DHT22;2314;48.272;11.562;2022-12-20T03:31:39;-1.10;99.90
4604;DHT22;2314;48.272;11.562;2022-12-20T03:34:06;-1.10;99.90
4604;DHT22;2314;48.272;11.562;2022-12-20T03:36:34;-1.10;99.90
4604;DHT22;2314;48.272;11.562;2022-12-20T03:39:02;-1.20;99.90
4604;DHT22;2314;48.272;11.562;2022-12-20T03:41:29;-1.10;99.90
4604;DHT22;2314;48.272;11.562;2022-12-20T03:43:56;-1.10;99.90
4604;DHT22;2314;48.272;11.562;2022-12-20T03:46:23;-1.10;99.90
4604;DHT22;2314;48.272;11.562;2022-12-20T03:48:50;-1.10;99.90
4604;DHT22;2314;48.272;11.562;2022-12-20T03:51:17;-1.10;99.90
4604;DHT22;2314;48.272;11.562;2022-12-20T03:53:45;-1.20;99.90
4604;DHT22;2314;48.272;11.562;2022-12-20T03:56:12;-1.20;99.90
4604;DHT22;2314;48.272;11.562;2022-12-20T03:58:39;-1.20;99.90
4604;DHT22;2314;48.272;11.562;2022-12-20T04:01:17;-1.10;99.90
4604;DHT22;2314;48.272;11.562;2022-12-20T04:03:44;-1.10;99.90
4604;DHT22;2314;48.272;11.562;2022-12-20T04:06:12;-1.00;99.90
4604;DHT22;2314;48.272;11.562;2022-12-20T04:08:39;-1.00;99.90
4604;DHT22;2314;48.272;11.562;2022-12-20T04:11:07;-1.00;99.90
4604;DHT22;2314;48.272;11.562;2022-12-20T04:13:44;-1.00;99.90
4604;DHT22;2314;48.272;11.562;2022-12-20T04:16:14;-1.00;99.90
4604;DHT22;2314;48.272;11.562;2022-12-20T04:18:42;-1.00;99.90
4604;DHT22;2314;48.272;11.562;2022-12-20T04:21:09;-1.00;99.90
4604;DHT22;2314;48.272;11.562;2022-12-20T04:23:38;-1.00;99.90
4604;DHT22;2314;48.272;11.562;2022-12-20T04:26:08;-1.00;99.90
4604;DHT22;2314;48.272;11.562;2022-12-20T04:28:36;-1.10;99.90
4604;DHT22;2314;48.272;11.562;2022-12-20T04:31:03;-1.10;99.90
4604;DHT22;2314;48.272;11.562;2022-12-20T04:33:30;-1.10;99.90
4604;DHT22;2314;48.272;11.562;2022-12-20T04:35:57;-1.10;99.90
4604;DHT22;2314;48.272;11.562;2022-12-20T04:38:25;-1.20;99.90
4604;DHT22;2314;48.272;11.562;2022-12-20T04:40:53;-1.10;99.90
4604;DHT22;2314;48.272;11.562;2022-12-20T04:43:22;-1.20;99.90
4604;DHT22;2314;48.272;11.562;2022-12-20T04:45:52;-1.10;99.90
4604;DHT22;2314;48.272;11.562;2022-12-20T04:48:22;-1.10;99.90
4604;DHT22;2314;48.272;11.562;2022-12-20T04:50:51;-1.10;99.90
4604;DHT22;2314;48.272;11.562;2022-12-20T04:53:19;-1.10;99.90
4604;DHT22;2314;48.272;11.562;2022-12-20T04:56:04;-1.20;99.90
4604;DHT22;2314;48.272;11.562;2022-12-20T04:58:34;-1.20;99.90
4604;DHT22;2314;48.272;11.562;2022-12-20T05:01:01;-1.20;99.90
4604;DHT22;2314;48.272;11.562;2022-12-20T05:03:27;-1.30;99.90
4604;DHT22;2314;48.272;11.562;2022-12-20T05:05:54;-1.30;99.90
4604;DHT22;2314;48.272;11.562;2022-12-20T05:08:22;-1.20;99.90
4604;DHT22;2314;48.272;11.562;2022-12-20T05:10:49;-1.20;99.90
4604;DHT22;2314;48.272;11.562;2022-12-20T05:13:16;-1.20;99.90
4604;DHT22;2314;48.272;11.562;2022-12-20T05:15:44;-1.20;99.90
4604;DHT22;2314;48.272;11.562;2022-12-20T05:18:11;-1.20;99.90
4604;DHT22;2314;48.272;11.562;2022-12-20T05:20:38;-1.20;99.90
4604;DHT22;2314;48.272;11.562;2022-12-20T05:23:05;-1.20;99.90
4604;DHT22;2314;48.272;11.562;2022-12-20T05:25:52;-1.10;99.90
4604;DHT22;2314;48.272;11.562;2022-12-20T05:28:36;-1.10;99.90
4604;DHT22;2314;48.272;11.562;2022-12-20T05:31:05;-1.10;99.90
4604;DHT22;2314;48.272;11.562;2022-12-20T05:33:32;-1.10;99.90
4604;DHT22;2314;48.272;11.562;2022-12-20T05:36:00;-1.10;99.90
4604;DHT22;2314;48.272;11.562;2022-12-20T05:38:27;-1.10;99.90
4604;DHT22;2314;48.272;11.562;2022-12-20T05:40:54;-1.10;99.90
4604;DHT22;2314;48.272;11.562;2022-12-20T05:43:21;-1.10;99.90
4604;DHT22;2314;48.272;11.562;2022-12-20T05:45:49;-1.10;99.90
4604;DHT22;2314;48.272;11.562;2022-12-20T05:48:19;-1.10;99.90
4604;DHT22;2314;48.272;11.562;2022-12-20T05:50:46;-1.20;99.90
4604;DHT22;2314;48.272;11.562;2022-12-20T05:53:15;-1.20;99.90
4604;DHT22;2314;48.272;11.562;2022-12-20T05:55:43;-1.20;99.90
4604;DHT22;2314;48.272;11.562;2022-12-20T05:58:11;-1.20;99.90
4604;DHT22;2314;48.272;11.562;2022-12-20T06:00:39;-1.20;99.90
4604;DHT22;2314;48.272;11.562;2022-12-20T06:03:06;-1.30;99.90
4604;DHT22;2314;48.272;11.562;2022-12-20T06:05:36;-1.30;99.90
4604;DHT22;2314;48.272;11.562;2022-12-20T06:08:04;-1.30;99.90
4604;DHT22;2314;48.272;11.562;2022-12-20T06:10:32;-1.30;99.90
4604;DHT22;2314;48.272;11.562;2022-12-20T06:13:00;-1.20;99.90
4604;DHT22;2314;48.272;11.562;2022-12-20T06:15:27;-1.20;99.90
4604;DHT22;2314;48.272;11.562;2022-12-20T06:17:54;-1.20;99.90
4604;DHT22;2314;48.272;11.562;2022-12-20T06:20:21;-1.10;99.90
4604;DHT22;2314;48.272;11.562;2022-12-20T06:22:50;-1.10;99.90
4604;DHT22;2314;48.272;11.562;2022-12-20T06:25:17;-1.10;99.90
4604;DHT22;2314;48.272;11.562;2022-12-20T06:27:44;-1.00;99.90
4604;DHT22;2314;48.272;11.562;2022-12-20T06:30:11;-1.00;99.90
4604;DHT22;2314;48.272;11.562;2022-12-20T06:32:39;-0.90;99.90
4604;DHT22;2314;48.272;11.562;2022-12-20T06:35:06;-0.90;99.90
4604;DHT22;2314;48.272;11.562;2022-12-20T06:37:34;-0.90;99.90
4604;DHT22;2314;48.272;11.562;2022-12-20T06:40:04;-0.80;99.90
4604;DHT22;2314;48.272;11.562;2022-12-20T06:42:33;-0.80;99.90
4604;DHT22;2314;48.272;11.562;2022-12-20T06:45:00;-0.90;99.90
4604;DHT22;2314;48.272;11.562;2022-12-20T06:47:27;-0.90;99.90
4604;DHT22;2314;48.272;11.562;2022-12-20T06:49:53;-0.90;99.90
4604;DHT22;2314;48.272;11.562;2022-12-20T06:52:20;-0.90;99.90
4604;DHT22;2314;48.272;11.562;2022-12-20T06:54:48;-0.90;99.90
4604;DHT22;2314;48.272;11.562;2022-12-20T06:57:16;-0.80;99.90
4604;DHT22;2314;48.272;11.562;2022-12-20T06:59:43;-0.90;99.90
4604;DHT22;2314;48.272;11.562;2022-12-20T07:02:11;-0.90;99.90
4604;DHT22;2314;48.272;11.562;2022-12-20T07:04:38;-0.90;99.90
4604;DHT22;2314;48.272;11.562;2022-12-20T07:07:05;-0.90;99.90
4604;DHT22;2314;48.272;11.562;2022-12-20T07:09:32;-0.90;99.90
4604;DHT22;2314;48.272;11.562;2022-12-20T07:11:59;-1.00;99.90
4604;DHT22;2314;48.272;11.562;2022-12-20T07:14:28;-1.00;99.90
4604;DHT22;2314;48.272;11.562;2022-12-20T07:16:55;-1.00;99.90
4604;DHT22;2314;48.272;11.562;2022-12-20T07:19:22;-1.00;99.90
4604;DHT22;2314;48.272;11.562;2022-12-20T07:21:49;-1.00;99.90
4604;DHT22;2314;48.272;11.562;2022-12-20T07:24:16;-0.90;99.90
4604;DHT22;2314;48.272;11.562;2022-12-20T07:26:43;-0.80;99.90
4604;DHT22;2314;48.272;11.562;2022-12-20T07:29:11;-0.80;99.90
4604;DHT22;2314;48.272;11.562;2022-12-20T07:31:39;-0.80;99.90
4604;DHT22;2314;48.272;11.562;2022-12-20T07:34:06;-0.70;99.90
4604;DHT22;2314;48.272;11.562;2022-12-20T07:36:33;-0.60;99.90
4604;DHT22;2314;48.272;11.562;2022-12-20T07:39:01;-0.60;99.90
4604;DHT22;2314;48.272;11.562;2022-12-20T07:41:28;-0.60;99.90
4604;DHT22;2314;48.272;11.562;2022-12-20T07:43:55;-0.60;99.90
4604;DHT22;2314;48.272;11.562;2022-12-20T07:46:22;-0.50;99.90
4604;DHT22;2314;48.272;11.562;2022-12-20T07:48:51;-0.50;99.90
4604;DHT22;2314;48.272;11.562;2022-12-20T07:51:20;-0.50;99.90
4604;DHT22;2314;48.272;11.562;2022-12-20T07:53:53;-0.40;99.90
4604;DHT22;2314;48.272;11.562;2022-12-20T07:56:25;-0.40;99.90
4604;DHT22;2314;48.272;11.562;2022-12-20T07:58:54;-0.40;99.90
4604;DHT22;2314;48.272;11.562;2022-12-20T08:01:23;-0.40;99.90
4604;DHT22;2314;48.272;11.562;2022-12-20T08:03:59;-0.30;99.90
4604;DHT22;2314;48.272;11.562;2022-12-20T08:06:29;-0.30;99.90
4604;DHT22;2314;48.272;11.562;2022-12-20T08:08:58;-0.20;99.90
4604;DHT22;2314;48.272;11.562;2022-12-20T08:11:28;-0.10;99.90
4604;DHT22;2314;48.272;11.562;2022-12-20T08:13:55;-0.10;99.90
4604;DHT22;2314;48.272;11.562;2022-12-20T08:16:23;-0.10;99.90
4604;DHT22;2314;48.272;11.562;2022-12-20T08:18:50;-0.20;99.90
4604;DHT22;2314;48.272;11.562;2022-12-20T08:21:18;-0.10;99.90
4604;DHT22;2314;48.272;11.562;2022-12-20T08:23:45;-0.10;99.90
4604;DHT22;2314;48.272;11.562;2022-12-20T08:26:12;0.00;99.90
4604;DHT22;2314;48.272;11.562;2022-12-20T08:28:39;0.10;99.90
4604;DHT22;2314;48.272;11.562;2022-12-20T08:31:08;0.20;99.90
4604;DHT22;2314;48.272;11.562;2022-12-20T08:33:37;0.20;99.90
4604;DHT22;2314;48.272;11.562;2022-12-20T08:36:07;0.20;99.90
4604;DHT22;2314;48.272;11.562;2022-12-20T08:38:38;0.30;99.90
4604;DHT22;2314;48.272;11.562;2022-12-20T08:41:07;0.30;99.90
4604;DHT22;2314;48.272;11.562;2022-12-20T08:43:35;0.40;99.90
4604;DHT22;2314;48.272;11.562;2022-12-20T08:46:03;0.40;99.90
4604;DHT22;2314;48.272;11.562;2022-12-20T08:48:31;0.40;99.90
4604;DHT22;2314;48.272;11.562;2022-12-20T08:51:00;0.40;99.90
4604;DHT22;2314;48.272;11.562;2022-12-20T08:53:29;0.50;99.90
4604;DHT22;2314;48.272;11.562;2022-12-20T08:56:04;0.50;99.90
4604;DHT22;2314;48.272;11.562;2022-12-20T08:58:32;0.60;99.90
4604;DHT22;2314;48.272;11.562;2022-12-20T09:00:59;0.70;99.90
4604;DHT22;2314;48.272;11.562;2022-12-20T09:03:28;0.80;99.90
4604;DHT22;2314;48.272;11.562;2022-12-20T09:05:57;0.80;99.90
4604;DHT22;2314;48.272;11.562;2022-12-20T09:08:24;0.80;99.90
4604;DHT22;2314;48.272;11.562;2022-12-20T09:10:52;0.90;99.90
4604;DHT22;2314;48.272;11.562;2022-12-20T09:13:20;0.90;99.90
4604;DHT22;2314;48.272;11.562;2022-12-20T09:15:47;1.10;99.90
4604;DHT22;2314;48.272;11.562;2022-12-20T09:18:14;1.20;99.90
4604;DHT22;2314;48.272;11.562;2022-12-20T09:20:42;1.20;99.90
4604;DHT22;2314;48.272;11.562;2022-12-20T09:23:10;1.20;99.90
4604;DHT22;2314;48.272;11.562;2022-12-20T09:25:37;1.40;99.90
4604;DHT22;2314;48.272;11.562;2022-12-20T09:28:04;1.40;99.90
4604;DHT22;2314;48.272;11.562;2022-12-20T09:30:32;1.50;99.90
4604;DHT22;2314;48.272;11.562;2022-12-20T09:32:59;1.50;99.90
4604;DHT22;2314;48.272;11.562;2022-12-20T09:35:26;1.60;99.90
4604;DHT22;2314;48.272;11.562;2022-12-20T09:37:54;1.60;99.90
4604;DHT22;2314;48.272;11.562;2022-12-20T09:40:23;1.70;99.90
4604;DHT22;2314;48.272;11.562;2022-12-20T09:42:52;1.70;99.90
4604;DHT22;2314;48.272;11.562;2022-12-20T09:45:24;1.70;99.90
4604;DHT22;2314;48.272;11.562;2022-12-20T09:47:55;1.70;99.90
4604;DHT22;2314;48.272;11.562;2022-12-20T09:50:33;1.70;99.90
4604;DHT22;2314;48.272;11.562;2022-12-20T09:53:16;1.70;99.90
4604;DHT22;2314;48.272;11.562;2022-12-20T09:55:53;1.60;99.90
4604;DHT22;2314;48.272;11.562;2022-12-20T09:58:42;1.70;99.90
4604;DHT22;2314;48.272;11.562;2022-12-20T10:01:21;1.80;99.90
4604;DHT22;2314;48.272;11.562;2022-12-20T10:03:52;1.90;99.90
4604;DHT22;2314;48.272;11.562;2022-12-20T10:06:26;1.90;99.90
4604;DHT22;2314;48.272;11.562;2022-12-20T10:09:01;1.90;99.90
4604;DHT22;2314;48.272;11.562;2022-12-20T10:11:44;2.00;99.90
4604;DHT22;2314;48.272;11.562;2022-12-20T10:14:41;2.00;99.90
4604;DHT22;2314;48.272;11.562;2022-12-20T10:17:25;2.00;99.90
4604;DHT22;2314;48.272;11.562;2022-12-20T10:20:14;2.00;99.90
4604;DHT22;2314;48.272;11.562;2022-12-20T10:22:52;2.20;99.90
4604;DHT22;2314;48.272;11.562;2022-12-20T10:25:25;2.30;99.90
4604;DHT22;2314;48.272;11.562;2022-12-20T10:27:57;2.20;99.90
4604;DHT22;2314;48.272;11.562;2022-12-20T10:30:27;2.30;99.90
4604;DHT22;2314;48.272;11.562;2022-12-20T10:32:56;2.30;99.90
4604;DHT22;2314;48.272;11.562;2022-12-20T10:35:27;2.40;99.90
4604;DHT22;2314;48.272;11.562;2022-12-20T10:37:58;2.30;99.90
4604;DHT22;2314;48.272;11.562;2022-12-20T10:40:28;2.50;99.90
4604;DHT22;2314;48.272;11.562;2022-12-20T10:42:56;2.40;99.90
4604;DHT22;2314;48.272;11.562;2022-12-20T10:45:33;2.30;99.90
4604;DHT22;2314;48.272;11.562;2022-12-20T10:48:04;2.40;99.90
4604;DHT22;2314;48.272;11.562;2022-12-20T10:50:34;2.30;99.90
4604;DHT22;2314;48.272;11.562;2022-12-20T10:53:18;2.50;99.90
4604;DHT22;2314;48.272;11.562;2022-12-20T10:55:47;2.40;99.90
4604;DHT22;2314;48.272;11.562;2022-12-20T10:58:18;2.40;99.90
4604;DHT22;2314;48.272;11.562;2022-12-20T11:00:49;2.30;99.90
4604;DHT22;2314;48.272;11.562;2022-12-20T11:03:18;2.30;99.90
4604;DHT22;2314;48.272;11.562;2022-12-20T11:05:55;2.30;99.90
4604;DHT22;2314;48.272;11.562;2022-12-20T11:08:25;2.30;99.90
4604;DHT22;2314;48.272;11.562;2022-12-20T11:11:11;2.30;99.90
4604;DHT22;2314;48.272;11.562;2022-12-20T11:13:41;2.40;99.90
4604;DHT22;2314;48.272;11.562;2022-12-20T11:16:25;2.40;99.90
4604;DHT22;2314;48.272;11.562;2022-12-20T11:19:05;2.50;99.90
4604;DHT22;2314;48.272;11.562;2022-12-20T11:22:00;2.50;99.90
4604;DHT22;2314;48.272;11.562;2022-12-20T11:24:34;2.60;99.90
4604;DHT22;2314;48.272;11.562;2022-12-20T11:27:19;2.60;99.90
4604;DHT22;2314;48.272;11.562;2022-12-20T11:30:13;2.50;99.90
4604;DHT22;2314;48.272;11.562;2022-12-20T11:33:01;2.60;99.90
4604;DHT22;2314;48.272;11.562;2022-12-20T11:35:44;2.80;99.90
4604;DHT22;2314;48.272;11.562;2022-12-20T11:38:26;2.80;99.90
4604;DHT22;2314;48.272;11.562;2022-12-20T11:41:10;2.90;99.90
4604;DHT22;2314;48.272;11.562;2022-12-20T11:44:02;3.20;99.90
4604;DHT22;2314;48.272;11.562;2022-12-20T11:46:50;3.10;99.90
4604;DHT22;2314;48.272;11.562;2022-12-20T11:49:45;3.00;99.90
4604;DHT22;2314;48.272;11.562;2022-12-20T11:52:26;3.10;99.90
4604;DHT22;2314;48.272;11.562;2022-12-20T11:55:05;3.10;99.90
4604;DHT22;2314;48.272;11.562;2022-12-20T11:57:41;3.20;99.90
4604;DHT22;2314;48.272;11.562;2022-12-20T12:00:13;3.20;99.90
4604;DHT22;2314;48.272;11.562;2022-12-20T12:02:45;3.40;99.90
4604;DHT22;2314;48.272;11.562;2022-12-20T12:05:19;3.40;99.90
4604;DHT22;2314;48.272;11.562;2022-12-20T12:07:52;3.30;99.90
4604;DHT22;2314;48.272;11.562;2022-12-20T12:10:25;3.30;99.90
4604;DHT22;2314;48.272;11.562;2022-12-20T12:13:02;3.20;99.90
4604;DHT22;2314;48.272;11.562;2022-12-20T12:15:33;3.10;99.90
4604;DHT22;2314;48.272;11.562;2022-12-20T12:18:06;3.10;99.90
4604;DHT22;2314;48.272;11.562;2022-12-20T12:20:39;3.10;99.90
4604;DHT22;2314;48.272;11.562;2022-12-20T12:23:18;3.00;99.90
4604;DHT22;2314;48.272;11.562;2022-12-20T12:25:50;2.90;99.90
4604;DHT22;2314;48.272;11.562;2022-12-20T12:28:18;3.00;99.90
4604;DHT22;2314;48.272;11.562;2022-12-20T12:30:50;2.90;99.90
4604;DHT22;2314;48.272;11.562;2022-12-20T12:33:21;2.90;99.90
4604;DHT22;2314;48.272;11.562;2022-12-20T12:36:02;3.00;99.90
4604;DHT22;2314;48.272;11.562;2022-12-20T12:39:06;3.00;99.90
4604;DHT22;2314;48.272;11.562;2022-12-20T12:42:21;2.90;99.90
4604;DHT22;2314;48.272;11.562;2022-12-20T12:45:06;2.80;99.90
4604;DHT22;2314;48.272;11.562;2022-12-20T12:47:38;2.80;99.90
4604;DHT22;2314;48.272;11.562;2022-12-20T12:50:24;2.70;99.90
4604;DHT22;2314;48.272;11.562;2022-12-20T12:52:55;2.70;99.90
4604;DHT22;2314;48.272;11.562;2022-12-20T12:55:40;2.50;99.90
4604;DHT22;2314;48.272;11.562;2022-12-20T12:58:30;2.50;99.90
4604;DHT22;2314;48.272;11.562;2022-12-20T13:01:00;2.40;99.90
4604;DHT22;2314;48.272;11.562;2022-12-20T13:03:44;2.40;99.90
4604;DHT22;2314;48.272;11.562;2022-12-20T13:06:58;2.30;99.90
4604;DHT22;2314;48.272;11.562;2022-12-20T13:09:40;2.20;99.90
4604;DHT22;2314;48.272;11.562;2022-12-20T13:15:51;2.20;99.90
4604;DHT22;2314;48.272;11.562;2022-12-20T13:18:30;2.20;99.90
4604;DHT22;2314;48.272;11.562;2022-12-20T13:24:49;2.10;99.90
4604;DHT22;2314;48.272;11.562;2022-12-20T13:27:28;2.10;99.90
4604;DHT22;2314;48.272;11.562;2022-12-20T13:33:23;2.10;99.90
4604;DHT22;2314;48.272;11.562;2022-12-20T13:36:32;2.10;99.90
4604;DHT22;2314;48.272;11.562;2022-12-20T13:39:30;2.20;99.90
4604;DHT22;2314;48.272;11.562;2022-12-20T13:42:23;2.20;99.90
4604;DHT22;2314;48.272;11.562;2022-12-20T13:44:56;2.20;99.90
4604;DHT22;2314;48.272;11.562;2022-12-20T13:47:31;2.30;99.90
4604;DHT22;2314;48.272;11.562;2022-12-20T13:50:20;2.40;99.90
4604;DHT22;2314;48.272;11.562;2022-12-20T13:53:00;2.30;99.90
4604;DHT22;2314;48.272;11.562;2022-12-20T13:55:34;2.40;99.90
4604;DHT22;2314;48.272;11.562;2022-12-20T13:58:05;2.40;99.90
4604;DHT22;2314;48.272;11.562;2022-12-20T14:00:35;2.30;99.90
4604;DHT22;2314;48.272;11.562;2022-12-20T14:03:04;2.20;99.90
4604;DHT22;2314;48.272;11.562;2022-12-20T14:05:35;2.10;99.90
4604;DHT22;2314;48.272;11.562;2022-12-20T14:08:05;2.10;99.90
4604;DHT22;2314;48.272;11.562;2022-12-20T14:10:35;2.10;99.90
4604;DHT22;2314;48.272;11.562;2022-12-20T14:13:02;2.10;99.90
4604;DHT22;2314;48.272;11.562;2022-12-20T14:15:39;2.20;99.90
4604;DHT22;2314;48.272;11.562;2022-12-20T14:18:16;2.20;99.90
4604;DHT22;2314;48.272;11.562;2022-12-20T14:20:47;2.30;99.90
4604;DHT22;2314;48.272;11.562;2022-12-20T14:23:18;2.30;99.90
4604;DHT22;2314;48.272;11.562;2022-12-20T14:25:49;2.30;99.90
4604;DHT22;2314;48.272;11.562;2022-12-20T14:28:28;2.40;99.90
4604;DHT22;2314;48.272;11.562;2022-12-20T14:30:57;2.40;99.90
4604;DHT22;2314;48.272;11.562;2022-12-20T14:33:29;2.30;99.90
4604;DHT22;2314;48.272;11.562;2022-12-20T14:36:07;2.20;99.90
4604;DHT22;2314;48.272;11.562;2022-12-20T14:38:36;2.20;99.90
4604;DHT22;2314;48.272;11.562;2022-12-20T14:41:31;2.00;99.90
4604;DHT22;2314;48.272;11.562;2022-12-20T14:44:15;1.90;99.90
4604;DHT22;2314;48.272;11.562;2022-12-20T14:46:47;1.80;99.90
4604;DHT22;2314;48.272;11.562;2022-12-20T14:49:21;1.70;99.90
4604;DHT22;2314;48.272;11.562;2022-12-20T14:52:04;1.70;99.90
4604;DHT22;2314;48.272;11.562;2022-12-20T14:54:33;1.70;99.90
4604;DHT22;2314;48.272;11.562;2022-12-20T14:57:01;1.70;99.90
4604;DHT22;2314;48.272;11.562;2022-12-20T14:59:29;1.70;99.90
4604;DHT22;2314;48.272;11.562;2022-12-20T15:01:57;1.70;99.90
4604;DHT22;2314;48.272;11.562;2022-12-20T15:04:29;1.70;99.90
4604;DHT22;2314;48.272;11.562;2022-12-20T15:07:00;1.60;99.90
4604;DHT22;2314;48.272;11.562;2022-12-20T15:09:27;1.50;99.90
4604;DHT22;2314;48.272;11.562;2022-12-20T15:11:55;1.50;99.90
4604;DHT22;2314;48.272;11.562;2022-12-20T15:14:31;1.50;99.90
4604;DHT22;2314;48.272;11.562;2022-12-20T15:17:01;1.50;99.90
4604;DHT22;2314;48.272;11.562;2022-12-20T15:19:29;1.40;99.90
4604;DHT22;2314;48.272;11.562;2022-12-20T15:21:59;1.40;99.90
4604;DHT22;2314;48.272;11.562;2022-12-20T15:24:27;1.40;99.90
4604;DHT22;2314;48.272;11.562;2022-12-20T15:26:54;1.30;99.90
4604;DHT22;2314;48.272;11.562;2022-12-20T15:29:23;1.30;99.90
4604;DHT22;2314;48.272;11.562;2022-12-20T15:31:52;1.20;99.90
4604;DHT22;2314;48.272;11.562;2022-12-20T15:34:29;1.20;99.90
4604;DHT22;2314;48.272;11.562;2022-12-20T15:37:01;1.20;99.90
4604;DHT22;2314;48.272;11.562;2022-12-20T15:39:30;1.30;99.90
4604;DHT22;2314;48.272;11.562;2022-12-20T15:41:59;1.20;99.90
4604;DHT22;2314;48.272;11.562;2022-12-20T15:44:29;1.20;99.90
4604;DHT22;2314;48.272;11.562;2022-12-20T15:46:57;1.20;99.90
4604;DHT22;2314;48.272;11.562;2022-12-20T15:49:25;1.30;99.90
4604;DHT22;2314;48.272;11.562;2022-12-20T15:51:54;1.30;99.90
4604;DHT22;2314;48.272;11.562;2022-12-20T15:54:24;1.30;99.90
4604;DHT22;2314;48.272;11.562;2022-12-20T15:56:52;1.30;99.90
4604;DHT22;2314;48.272;11.562;2022-12-20T15:59:20;1.30;99.90
4604;DHT22;2314;48.272;11.562;2022-12-20T16:01:47;1.30;99.90
4604;DHT22;2314;48.272;11.562;2022-12-20T16:04:15;1.30;99.90
4604;DHT22;2314;48.272;11.562;2022-12-20T16:06:45;1.30;99.90
4604;DHT22;2314;48.272;11.562;2022-12-20T16:09:13;1.20;99.90
4604;DHT22;2314;48.272;11.562;2022-12-20T16:11:42;1.30;99.90
4604;DHT22;2314;48.272;11.562;2022-12-20T16:14:14;1.30;99.90
4604;DHT22;2314;48.272;11.562;2022-12-20T16:16:42;1.20;99.90
4604;DHT22;2314;48.272;11.562;2022-12-20T16:19:09;1.20;99.90
4604;DHT22;2314;48.272;11.562;2022-12-20T16:21:41;1.20;99.90
4604;DHT22;2314;48.272;11.562;2022-12-20T16:24:12;1.20;99.90
4604;DHT22;2314;48.272;11.562;2022-12-20T16:26:42;1.20;99.90
4604;DHT22;2314;48.272;11.562;2022-12-20T16:29:10;1.20;99.90
4604;DHT22;2314;48.272;11.562;2022-12-20T16:31:38;1.30;99.90
4604;DHT22;2314;48.272;11.562;2022-12-20T16:34:11;1.30;99.90
4604;DHT22;2314;48.272;11.562;2022-12-20T16:36:38;1.30;99.90
4604;DHT22;2314;48.272;11.562;2022-12-20T16:39:05;1.20;99.90